createdAt,value
2018-10-12T00:00:00.444Z,14.23
2018-10-12T00:02:28.676Z,13.47
2018-10-12T00:04:56.874Z,14.73
2018-10-12T00:07:25.075Z,14.17
2018-10-12T00:09:53.254Z,14.00
2018-10-12T00:12:22.355Z,14.27
2018-10-12T00:14:50.530Z,14.23
2018-10-12T00:17:18.709Z,14.03
2018-10-12T00:19:46.875Z,14.43
2018-10-12T00:22:15.063Z,12.80
2018-10-12T00:24:43.234Z,13.70
2018-10-12T00:27:11.419Z,13.47
2018-10-12T00:29:39.610Z,12.57
2018-10-12T00:32:07.819Z,12.97
2018-10-12T00:34:35.984Z,13.13
2018-10-12T00:37:04.167Z,12.27
2018-10-12T00:39:32.366Z,12.67
2018-10-12T00:42:00.538Z,12.83
2018-10-12T00:44:28.715Z,12.57
2018-10-12T00:46:56.963Z,13.87
2018-10-12T00:49:25.134Z,13.27
2018-10-12T00:51:53.319Z,12.50
2018-10-12T00:54:21.483Z,11.60
2018-10-12T00:56:49.702Z,11.67
2018-10-12T00:59:17.940Z,13.90
2018-10-12T01:01:46.166Z,11.37
2018-10-12T01:04:14.365Z,11.13
2018-10-12T01:06:42.623Z,12.03
2018-10-12T01:09:10.731Z,11.13
2018-10-12T01:11:38.911Z,10.93
2018-10-12T01:14:07.079Z,10.60
2018-10-12T01:16:35.255Z,10.30
2018-10-12T01:19:03.431Z,10.10
2018-10-12T01:21:31.617Z,9.43
2018-10-12T01:23:59.778Z,10.07
2018-10-12T01:26:28.018Z,8.50
2018-10-12T01:28:57.458Z,9.97
2018-10-12T01:31:26.523Z,10.37
2018-10-12T01:33:54.955Z,9.73
2018-10-12T01:36:23.107Z,8.83
2018-10-12T01:38:51.286Z,9.77
2018-10-12T01:41:19.448Z,9.50
2018-10-12T01:43:47.662Z,10.90
2018-10-12T01:46:15.850Z,9.43
2018-10-12T01:48:44.032Z,7.93
2018-10-12T01:51:12.215Z,8.40
2018-10-12T01:53:40.407Z,12.57
2018-10-12T01:56:08.603Z,8.23
2018-10-12T01:58:36.844Z,7.57
2018-10-12T02:01:05.140Z,8.77
2018-10-12T02:03:33.363Z,7.60
2018-10-12T02:06:01.567Z,8.30
2018-10-12T02:08:29.759Z,7.63
2018-10-12T02:10:57.951Z,9.10
2018-10-12T02:13:26.142Z,8.63
2018-10-12T02:15:54.323Z,7.70
2018-10-12T02:18:22.762Z,7.13
2018-10-12T02:20:50.943Z,11.43
2018-10-12T02:23:19.123Z,6.57
2018-10-12T02:25:47.299Z,7.23
2018-10-12T02:28:15.491Z,30.90
2018-10-12T02:30:44.206Z,6.63
2018-10-12T02:33:12.394Z,8.00
2018-10-12T02:35:40.567Z,9.00
2018-10-12T02:38:08.746Z,7.23
2018-10-12T02:40:36.923Z,7.87
2018-10-12T02:43:05.115Z,9.13
2018-10-12T02:45:33.292Z,7.67
2018-10-12T02:48:01.486Z,7.77
2018-10-12T02:50:29.671Z,6.90
2018-10-12T02:52:57.848Z,7.20
2018-10-12T02:55:26.057Z,6.53
2018-10-12T02:57:54.272Z,7.90
2018-10-12T03:00:22.488Z,7.53
2018-10-12T03:02:50.703Z,7.47
2018-10-12T03:05:18.883Z,6.63
2018-10-12T03:07:47.043Z,7.83
2018-10-12T03:10:15.251Z,7.27
2018-10-12T03:12:43.411Z,7.77
2018-10-12T03:15:11.671Z,9.23
2018-10-12T03:17:40.323Z,8.23
2018-10-12T03:20:08.520Z,9.03
2018-10-12T03:22:36.698Z,8.17
2018-10-12T03:25:04.875Z,8.77
2018-10-12T03:27:43.222Z,8.00
2018-10-12T03:30:11.399Z,9.10
2018-10-12T03:32:39.571Z,7.10
2018-10-12T03:35:07.763Z,6.67
2018-10-12T03:37:35.935Z,7.40
2018-10-12T03:40:04.126Z,12.97
2018-10-12T03:42:32.295Z,8.37
2018-10-12T03:45:00.470Z,9.13
2018-10-12T03:47:28.664Z,7.80
2018-10-12T03:49:56.889Z,7.87
2018-10-12T03:52:25.103Z,7.60
2018-10-12T03:54:53.313Z,7.70
2018-10-12T03:57:21.507Z,7.10
2018-10-12T03:59:49.683Z,9.40
2018-10-12T04:02:17.855Z,8.67
2018-10-12T04:04:46.301Z,9.77
2018-10-12T04:07:14.746Z,8.10
2018-10-12T04:09:42.968Z,8.60
2018-10-12T04:12:11.128Z,11.27
2018-10-12T04:14:39.313Z,9.17
2018-10-12T04:17:07.475Z,8.03
2018-10-12T04:19:35.642Z,9.30
2018-10-12T04:22:03.811Z,8.07
2018-10-12T04:24:31.986Z,8.90
2018-10-12T04:27:00.155Z,9.17
2018-10-12T04:29:28.343Z,7.97
2018-10-12T04:31:56.538Z,9.43
2018-10-12T04:34:24.727Z,10.20
2018-10-12T04:36:52.908Z,9.90
2018-10-12T04:39:38.017Z,9.50
2018-10-12T04:42:06.251Z,9.27
2018-10-12T04:44:34.465Z,9.20
2018-10-12T04:47:02.651Z,7.37
2018-10-12T04:49:30.827Z,13.23
2018-10-12T04:51:59.888Z,8.53
2018-10-12T04:54:28.364Z,11.70
2018-10-12T04:56:56.546Z,8.60
2018-10-12T04:59:24.739Z,8.93
2018-10-12T05:01:52.922Z,13.33
2018-10-12T05:04:21.087Z,10.77
2018-10-12T05:06:49.259Z,13.50
2018-10-12T05:09:17.428Z,9.30
2018-10-12T05:11:45.695Z,11.37
2018-10-12T05:14:13.854Z,7.80
2018-10-12T05:16:42.036Z,10.90
2018-10-12T05:19:10.379Z,14.90
2018-10-12T05:21:38.559Z,10.83
2018-10-12T05:24:06.820Z,10.80
2018-10-12T05:26:34.994Z,8.57
2018-10-12T05:29:03.567Z,10.27
2018-10-12T05:31:31.774Z,9.37
2018-10-12T05:34:00.275Z,11.13
2018-10-12T05:36:28.735Z,8.60
2018-10-12T05:38:56.936Z,8.23
2018-10-12T05:41:25.168Z,10.50
2018-10-12T05:43:53.518Z,7.63
2018-10-12T05:46:21.650Z,9.63
2018-10-12T05:49:01.501Z,13.47
2018-10-12T05:51:29.556Z,11.13
2018-10-12T05:53:58.009Z,9.67
2018-10-12T05:56:34.235Z,10.30
2018-10-12T05:59:02.466Z,8.83
2018-10-12T06:01:30.743Z,10.77
2018-10-12T06:03:59.115Z,9.87
2018-10-12T06:06:27.371Z,9.77
2018-10-12T06:08:55.694Z,10.00
2018-10-12T06:11:23.999Z,11.20
2018-10-12T06:13:52.255Z,8.00
2018-10-12T06:16:20.607Z,13.43
2018-10-12T06:18:48.865Z,8.60
2018-10-12T06:21:17.111Z,11.03
2018-10-12T06:23:45.607Z,8.83
2018-10-12T06:26:14.407Z,21.43
2018-10-12T06:28:42.647Z,9.33
2018-10-12T06:31:11.575Z,9.30
2018-10-12T06:33:39.794Z,9.30
2018-10-12T06:36:08.230Z,10.43
2018-10-12T06:38:36.419Z,10.40
2018-10-12T06:41:04.722Z,8.53
2018-10-12T06:43:33.023Z,11.10
2018-10-12T06:46:01.204Z,14.17
2018-10-12T06:48:29.455Z,15.37
2018-10-12T06:50:57.647Z,10.10
2018-10-12T06:53:25.844Z,13.90
2018-10-12T06:55:54.024Z,7.73
2018-10-12T06:58:22.231Z,8.40
2018-10-12T07:00:50.454Z,13.00
2018-10-12T07:03:18.805Z,11.47
2018-10-12T07:05:47.074Z,10.20
2018-10-12T07:08:15.292Z,15.23
2018-10-12T07:10:43.480Z,10.87
2018-10-12T07:13:11.658Z,6.43
2018-10-12T07:15:39.852Z,12.70
2018-10-12T07:18:08.192Z,11.20
2018-10-12T07:20:36.372Z,10.83
2018-10-12T07:23:04.936Z,11.47
2018-10-12T07:25:32.731Z,9.27
2018-10-12T07:28:00.907Z,5.30
2018-10-12T07:30:29.095Z,6.77
2018-10-12T07:32:57.256Z,6.10
2018-10-12T07:35:25.439Z,5.43
2018-10-12T07:37:53.602Z,7.33
2018-10-12T07:40:21.783Z,4.87
2018-10-12T07:42:50.003Z,6.50
2018-10-12T07:45:18.199Z,4.67
2018-10-12T07:47:46.379Z,5.13
2018-10-12T07:50:14.567Z,8.53
2018-10-12T07:52:42.751Z,4.90
2018-10-12T07:55:11.110Z,5.93
2018-10-12T07:57:39.278Z,7.40
2018-10-12T08:00:08.183Z,4.57
2018-10-12T08:02:36.296Z,9.43
2018-10-12T08:05:04.480Z,6.90
2018-10-12T08:07:32.911Z,5.33
2018-10-12T08:10:01.102Z,4.03
2018-10-12T08:12:29.283Z,4.10
2018-10-12T08:14:57.479Z,5.00
2018-10-12T08:17:25.705Z,2.87
2018-10-12T08:19:53.908Z,3.43
2018-10-12T08:22:22.141Z,3.40
2018-10-12T08:24:50.346Z,3.03
2018-10-12T08:27:18.543Z,3.43
2018-10-12T08:29:46.714Z,4.77
2018-10-12T08:32:14.911Z,2.80
2018-10-12T08:34:43.083Z,3.17
2018-10-12T08:37:11.271Z,2.77
2018-10-12T08:39:39.431Z,2.90
2018-10-12T08:42:07.669Z,5.87
2018-10-12T08:44:35.818Z,3.03
2018-10-12T08:47:04.009Z,5.37
2018-10-12T08:49:32.176Z,2.30
2018-10-12T08:52:00.350Z,3.60
2018-10-12T08:54:28.522Z,3.13
2018-10-12T08:56:56.691Z,2.50
2018-10-12T08:59:24.851Z,2.20
2018-10-12T09:01:53.039Z,3.00
2018-10-12T09:04:21.212Z,2.80
2018-10-12T09:06:49.435Z,2.67
2018-10-12T09:09:17.620Z,2.30
2018-10-12T09:11:45.804Z,5.10
2018-10-12T09:14:13.961Z,2.50
2018-10-12T09:16:42.156Z,2.50
2018-10-12T09:19:10.327Z,2.73
2018-10-12T09:21:38.543Z,2.37
2018-10-12T09:24:06.761Z,2.13
2018-10-12T09:26:34.992Z,2.60
2018-10-12T09:29:03.225Z,2.23
2018-10-12T09:31:31.440Z,6.30
2018-10-12T09:33:59.618Z,7.00
2018-10-12T09:36:28.052Z,2.60
2018-10-12T09:38:56.167Z,2.60
2018-10-12T09:41:24.327Z,4.90
2018-10-12T09:43:53.010Z,2.57
2018-10-12T09:46:21.174Z,2.53
2018-10-12T09:48:49.354Z,4.47
2018-10-12T09:51:17.588Z,2.43
2018-10-12T09:53:45.763Z,2.50
2018-10-12T09:56:13.927Z,2.07
2018-10-12T09:58:42.130Z,6.63
2018-10-12T10:01:15.591Z,2.80
2018-10-12T10:03:49.015Z,2.27
2018-10-12T10:06:17.218Z,2.43
2018-10-12T10:08:45.457Z,2.33
2018-10-12T10:11:13.592Z,3.73
2018-10-12T10:13:41.794Z,2.10
2018-10-12T10:16:09.960Z,3.03
2018-10-12T10:18:38.745Z,2.43
2018-10-12T10:21:06.974Z,3.17
2018-10-12T10:23:35.225Z,3.27
2018-10-12T10:26:03.429Z,2.47
2018-10-12T10:28:31.631Z,4.40
2018-10-12T10:30:59.815Z,1.97
2018-10-12T10:33:27.996Z,3.63
2018-10-12T10:35:56.195Z,2.10
2018-10-12T10:38:24.406Z,3.20
2018-10-12T10:40:52.581Z,3.53
2018-10-12T10:43:20.770Z,2.10
2018-10-12T10:45:49.003Z,3.00
2018-10-12T10:48:17.172Z,2.33
2018-10-12T10:50:45.355Z,2.20
2018-10-12T10:53:13.523Z,1.80
2018-10-12T10:55:41.757Z,2.03
2018-10-12T10:58:09.931Z,2.83
2018-10-12T11:00:38.110Z,3.93
2018-10-12T11:03:06.524Z,3.10
2018-10-12T11:05:34.698Z,1.90
2018-10-12T11:08:02.875Z,2.37
2018-10-12T11:10:31.050Z,2.17
2018-10-12T11:12:59.272Z,2.23
2018-10-12T11:15:27.438Z,2.07
2018-10-12T11:17:55.650Z,2.50
2018-10-12T11:20:23.960Z,1.60
2018-10-12T11:22:52.343Z,5.13
2018-10-12T11:25:20.543Z,2.53
2018-10-12T11:27:48.720Z,1.83
2018-10-12T11:30:16.907Z,1.87
2018-10-12T11:32:45.095Z,3.50
2018-10-12T11:35:13.259Z,3.83
2018-10-12T11:37:41.469Z,1.97
2018-10-12T11:40:09.688Z,3.67
2018-10-12T11:42:49.283Z,2.27
2018-10-12T11:45:17.498Z,4.73
2018-10-12T11:47:45.618Z,3.10
2018-10-12T11:50:13.795Z,1.80
2018-10-12T11:52:41.966Z,4.27
2018-10-12T11:55:10.143Z,1.73
2018-10-12T11:57:38.312Z,3.03
2018-10-12T12:00:06.483Z,1.60
2018-10-12T12:02:34.656Z,1.70
2018-10-12T12:05:02.842Z,3.83
2018-10-12T12:07:31.050Z,2.10
2018-10-12T12:09:59.233Z,2.33
2018-10-12T12:12:27.423Z,3.40
2018-10-12T12:14:55.607Z,3.07
2018-10-12T12:17:23.827Z,1.75
2018-10-12T12:19:52.006Z,3.15
2018-10-12T12:22:20.269Z,2.20
2018-10-12T12:24:48.451Z,2.95
2018-10-12T12:27:16.647Z,2.42
2018-10-12T12:29:44.833Z,4.55
2018-10-12T12:32:13.047Z,3.72
2018-10-12T12:34:41.286Z,2.35
2018-10-12T12:37:09.477Z,2.72
2018-10-12T12:39:37.900Z,2.02
2018-10-12T12:42:06.142Z,3.12
2018-10-12T12:44:34.373Z,1.72
2018-10-12T12:47:02.659Z,1.72
2018-10-12T12:49:31.027Z,2.55
2018-10-12T12:51:59.003Z,1.67
2018-10-12T12:54:27.439Z,2.25
2018-10-12T12:56:55.657Z,2.17
2018-10-12T12:59:23.843Z,1.60
2018-10-12T13:01:52.491Z,4.60
2018-10-12T13:04:20.713Z,1.62
2018-10-12T13:06:48.927Z,5.85
2018-10-12T13:09:17.132Z,2.67
2018-10-12T13:11:45.346Z,3.08
2018-10-12T13:14:13.664Z,1.42
2018-10-12T13:16:41.927Z,3.52
2018-10-12T13:19:10.128Z,6.28
2018-10-12T13:21:38.330Z,2.33
2018-10-12T13:24:06.578Z,2.92
2018-10-12T13:26:34.767Z,2.00
2018-10-12T13:29:03.083Z,2.98
2018-10-12T13:31:31.291Z,2.92
2018-10-12T13:33:59.530Z,2.02
2018-10-12T13:36:27.747Z,2.72
2018-10-12T13:38:56.004Z,2.30
2018-10-12T13:41:24.227Z,3.37
2018-10-12T13:43:52.461Z,2.92
2018-10-12T13:46:20.659Z,1.30
2018-10-12T13:48:48.869Z,3.05
2018-10-12T13:51:17.064Z,3.05
2018-10-12T13:53:45.255Z,1.70
2018-10-12T13:56:13.447Z,4.75
2018-10-12T13:58:41.770Z,1.62
2018-10-12T14:01:09.983Z,1.77
2018-10-12T14:03:38.191Z,1.65
2018-10-12T14:06:06.379Z,1.92
2018-10-12T14:08:34.595Z,1.60
2018-10-12T14:11:02.811Z,3.80
2018-10-12T14:13:30.997Z,3.60
2018-10-12T14:15:59.179Z,3.15
2018-10-12T14:18:27.436Z,1.95
2018-10-12T14:20:55.541Z,1.75
2018-10-12T14:23:23.724Z,3.92
2018-10-12T14:25:51.903Z,1.47
2018-10-12T14:28:20.112Z,1.95
2018-10-12T14:30:48.327Z,1.67
2018-10-12T14:33:16.596Z,1.80
2018-10-12T14:35:44.844Z,1.77
2018-10-12T14:38:13.024Z,3.98
2018-10-12T14:40:41.241Z,1.62
2018-10-12T14:43:09.415Z,1.12
2018-10-12T14:45:37.619Z,3.15
2018-10-12T14:48:05.855Z,1.20
2018-10-12T14:50:34.032Z,2.98
2018-10-12T14:53:02.281Z,2.80
2018-10-12T14:55:30.407Z,1.52
2018-10-12T14:57:58.579Z,3.33
2018-10-12T15:00:26.758Z,3.85
2018-10-12T15:02:54.927Z,4.20
2018-10-12T15:05:23.162Z,2.05
2018-10-12T15:07:51.325Z,3.58
2018-10-12T15:10:19.535Z,3.98
2018-10-12T15:12:47.735Z,2.95
2018-10-12T15:15:20.851Z,4.28
2018-10-12T15:17:50.154Z,3.50
2018-10-12T15:20:18.430Z,3.98
2018-10-12T15:22:46.611Z,3.10
2018-10-12T15:25:14.812Z,3.15
2018-10-12T15:27:43.347Z,3.57
2018-10-12T15:30:12.247Z,4.97
2018-10-12T15:32:40.691Z,3.47
2018-10-12T15:35:09.131Z,3.63
2018-10-12T15:37:37.526Z,2.60
2018-10-12T15:40:05.785Z,6.47
2018-10-12T15:42:35.516Z,3.53
2018-10-12T15:45:03.760Z,2.33
2018-10-12T15:47:31.967Z,2.77
2018-10-12T15:50:00.146Z,3.03
2018-10-12T15:52:28.323Z,3.63
2018-10-12T15:54:56.507Z,3.50
2018-10-12T15:57:25.666Z,4.03
2018-10-12T15:59:53.884Z,3.23
2018-10-12T16:02:22.088Z,1.93
2018-10-12T16:04:50.291Z,2.63
2018-10-12T16:07:19.031Z,4.10
2018-10-12T16:09:49.083Z,3.00
2018-10-12T16:12:17.702Z,6.97
2018-10-12T16:14:45.928Z,3.87
2018-10-12T16:17:14.050Z,4.90
2018-10-12T16:19:42.223Z,5.00
2018-10-12T16:22:10.834Z,6.63
2018-10-12T16:25:52.711Z,2.80
2018-10-12T16:28:21.115Z,3.80
2018-10-12T16:30:49.483Z,9.17
2018-10-12T16:33:17.730Z,5.40
2018-10-12T16:35:45.954Z,4.10
2018-10-12T16:38:14.832Z,3.27
2018-10-12T16:40:43.499Z,2.80
2018-10-12T16:43:12.807Z,4.10
2018-10-12T16:45:40.975Z,3.83
2018-10-12T16:48:09.363Z,3.60
2018-10-12T16:50:37.560Z,4.00
2018-10-12T16:53:05.987Z,6.30
2018-10-12T16:55:34.164Z,4.50
2018-10-12T16:58:02.388Z,6.73
2018-10-12T17:00:30.507Z,4.03
2018-10-12T17:02:58.690Z,4.00
2018-10-12T17:05:27.587Z,3.93
2018-10-12T17:07:56.077Z,5.53
2018-10-12T17:10:24.258Z,4.13
2018-10-12T17:12:52.523Z,4.93
2018-10-12T17:15:20.746Z,7.80
2018-10-12T17:17:48.896Z,4.13
2018-10-12T17:20:17.079Z,9.50
2018-10-12T17:22:45.274Z,5.77
2018-10-12T17:25:13.459Z,5.73
2018-10-12T17:27:41.660Z,5.43
2018-10-12T17:30:09.875Z,9.70
2018-10-12T17:32:38.112Z,5.27
2018-10-12T17:35:06.542Z,14.47
2018-10-12T17:37:34.784Z,5.33
2018-10-12T17:40:03.054Z,5.60
2018-10-12T17:42:31.244Z,8.00
2018-10-12T17:44:59.511Z,5.20
2018-10-12T17:47:27.731Z,5.27
2018-10-12T17:49:55.935Z,6.07
2018-10-12T17:52:24.133Z,5.20
2018-10-12T17:54:52.327Z,7.17
2018-10-12T17:57:23.312Z,5.27
2018-10-12T17:59:51.927Z,6.03
2018-10-12T18:02:20.084Z,5.20
2018-10-12T18:04:48.272Z,4.93
2018-10-12T18:07:16.471Z,7.97
2018-10-12T18:09:44.659Z,6.10
2018-10-12T18:12:12.835Z,10.30
2018-10-12T18:14:41.011Z,4.60
2018-10-12T18:17:09.183Z,7.53
2018-10-12T18:19:37.391Z,5.53
2018-10-12T18:22:05.536Z,8.70
2018-10-12T18:24:33.775Z,7.27
2018-10-12T18:27:01.943Z,5.87
2018-10-12T18:29:30.139Z,5.20
2018-10-12T18:31:58.366Z,6.43
2018-10-12T18:34:26.601Z,10.47
2018-10-12T18:36:55.003Z,8.40
2018-10-12T18:39:23.105Z,13.63
2018-10-12T18:41:51.315Z,11.70
2018-10-12T18:44:19.463Z,8.73
2018-10-12T18:46:47.698Z,10.40
2018-10-12T18:49:15.925Z,9.00
2018-10-12T18:51:44.133Z,12.43
2018-10-12T18:54:12.359Z,7.10
2018-10-12T18:56:40.531Z,6.93
2018-10-12T18:59:09.370Z,8.03
2018-10-12T19:01:37.583Z,8.57
2018-10-12T19:04:05.782Z,9.87
2018-10-12T19:06:34.043Z,7.47
2018-10-12T19:09:02.223Z,8.43
2018-10-12T19:11:30.496Z,9.77
2018-10-12T19:13:58.744Z,8.03
2018-10-12T19:16:27.300Z,10.10
2018-10-12T19:18:55.488Z,8.30
2018-10-12T19:21:23.695Z,9.10
2018-10-12T19:23:51.941Z,7.90
2018-10-12T19:26:20.096Z,9.83
2018-10-12T19:28:48.317Z,11.27
2018-10-12T19:31:16.611Z,7.23
2018-10-12T19:33:44.733Z,7.27
2018-10-12T19:36:12.952Z,7.07
2018-10-12T19:38:41.355Z,7.37
2018-10-12T19:41:09.559Z,8.77
2018-10-12T19:43:37.775Z,9.43
2018-10-12T19:46:05.997Z,10.23
2018-10-12T19:48:34.204Z,8.57
2018-10-12T19:51:02.394Z,7.17
2018-10-12T19:53:30.591Z,9.57
2018-10-12T19:55:58.795Z,11.23
2018-10-12T19:58:27.003Z,11.17
2018-10-12T20:00:55.239Z,13.47
2018-10-12T20:03:23.463Z,11.57
2018-10-12T20:05:51.681Z,9.97
2018-10-12T20:08:19.919Z,8.73
2018-10-12T20:10:48.157Z,10.87
2018-10-12T20:13:16.404Z,13.53
2018-10-12T20:15:44.647Z,8.77
2018-10-12T20:18:12.906Z,9.37
2018-10-12T20:20:41.156Z,11.00
2018-10-12T20:23:09.367Z,9.73
2018-10-12T20:25:37.600Z,9.67
2018-10-12T20:28:05.797Z,11.33
2018-10-12T20:30:34.012Z,10.00
2018-10-12T20:33:02.231Z,10.17
2018-10-12T20:35:30.446Z,11.03
2018-10-12T20:37:58.655Z,10.87
2018-10-12T20:40:26.876Z,11.53
2018-10-12T20:42:55.067Z,14.63
2018-10-12T20:45:23.251Z,12.60
2018-10-12T20:47:51.549Z,13.87
2018-10-12T20:50:19.740Z,14.57
2018-10-12T20:52:47.927Z,12.13
2018-10-12T20:55:16.115Z,13.47
2018-10-12T20:57:45.767Z,12.13
2018-10-12T21:00:14.946Z,18.67
2018-10-12T21:02:43.309Z,11.07
2018-10-12T21:05:11.811Z,11.70
2018-10-12T21:07:40.187Z,14.40
2018-10-12T21:10:09.185Z,12.77
2018-10-12T21:12:37.654Z,11.77
2018-10-12T21:15:06.145Z,12.37
2018-10-12T21:17:34.808Z,15.60
2018-10-12T21:20:03.434Z,13.17
2018-10-12T21:22:33.807Z,17.43
2018-10-12T21:25:04.684Z,13.93
2018-10-12T21:27:32.941Z,17.30
2018-10-12T21:30:02.343Z,15.43
2018-10-12T21:32:31.040Z,17.53
2018-10-12T21:35:00.827Z,13.50
2018-10-12T21:37:29.380Z,13.20
2018-10-12T21:39:58.207Z,16.37
2018-10-12T21:42:26.491Z,13.57
2018-10-12T21:44:56.280Z,16.40
2018-10-12T21:47:24.933Z,13.13
2018-10-12T21:49:53.228Z,15.07
2018-10-12T21:52:21.619Z,16.90
2018-10-12T21:54:49.937Z,15.57
2018-10-12T21:57:18.151Z,19.80
2018-10-12T21:59:46.516Z,13.67
2018-10-12T22:02:14.961Z,18.33
2018-10-12T22:04:44.422Z,14.97
2018-10-12T22:07:15.138Z,19.57
2018-10-12T22:09:44.231Z,15.33
2018-10-12T22:12:12.915Z,17.80
2018-10-12T22:14:41.079Z,15.70
2018-10-12T22:17:10.655Z,20.07
2018-10-12T22:19:38.830Z,17.57
2018-10-12T22:22:07.071Z,19.23
2018-10-12T22:24:35.245Z,25.10
2018-10-12T22:27:03.440Z,15.97
2018-10-12T22:29:32.053Z,13.90
2018-10-12T22:32:00.279Z,14.50
2018-10-12T22:34:28.495Z,12.93
2018-10-12T22:36:56.879Z,14.67
2018-10-12T22:39:26.205Z,14.93
2018-10-12T22:41:54.924Z,14.60
2018-10-12T22:44:23.575Z,11.20
2018-10-12T22:46:52.088Z,14.20
2018-10-12T22:49:20.267Z,16.17
2018-10-12T22:51:48.451Z,14.70
2018-10-12T22:54:16.630Z,12.47
2018-10-12T22:56:44.803Z,18.20
2018-10-12T22:59:13.090Z,12.57
2018-10-12T23:01:41.271Z,14.80
2018-10-12T23:04:09.443Z,10.17
2018-10-12T23:06:37.622Z,15.00
2018-10-12T23:09:08.675Z,12.00
2018-10-12T23:11:36.900Z,14.67
2018-10-12T23:14:05.572Z,11.03
2018-10-12T23:16:33.805Z,15.80
2018-10-12T23:19:02.030Z,12.07
2018-10-12T23:21:30.316Z,15.90
2018-10-12T23:23:58.655Z,11.27
2018-10-12T23:26:26.830Z,16.07
2018-10-12T23:28:55.011Z,14.73
2018-10-12T23:31:23.188Z,11.83
2018-10-12T23:34:00.779Z,11.00
2018-10-12T23:36:29.039Z,14.10
2018-10-12T23:38:57.335Z,11.97
2018-10-12T23:41:26.012Z,13.60
2018-10-12T23:43:54.492Z,11.77
2018-10-12T23:46:22.663Z,13.93
2018-10-12T23:48:50.850Z,12.03
2018-10-12T23:51:19.302Z,13.23
2018-10-12T23:53:47.499Z,11.33
2018-10-12T23:56:15.667Z,14.97
2018-10-12T23:58:43.942Z,11.27
